sensor_id;sensor_type;location;lat;lon;timestamp;temperature;humidity
13074;DHT22;6603;47.066;15.396;2023-08-30T00:02:01;15.90;1.00
13074;DHT22;6603;47.066;15.396;2023-08-30T00:04:28;15.90;1.00
13074;DHT22;6603;47.066;15.396;2023-08-30T00:06:54;15.90;1.00
13074;DHT22;6603;47.066;15.396;2023-08-30T00:09:20;15.90;1.00
13074;DHT22;6603;47.066;15.396;2023-08-30T00:11:46;15.90;1.00
13074;DHT22;6603;47.066;15.396;2023-08-30T00:14:12;15.90;1.00
13074;DHT22;6603;47.066;15.396;2023-08-30T00:16:38;15.90;1.00
13074;DHT22;6603;47.066;15.396;2023-08-30T00:19:04;15.90;1.00
13074;DHT22;6603;47.066;15.396;2023-08-30T00:21:30;15.90;1.00
13074;DHT22;6603;47.066;15.396;2023-08-30T00:23:56;15.80;1.00
13074;DHT22;6603;47.066;15.396;2023-08-30T00:26:22;15.80;1.00
13074;DHT22;6603;47.066;15.396;2023-08-30T00:28:47;15.80;1.00
13074;DHT22;6603;47.066;15.396;2023-08-30T00:31:13;15.70;1.00
13074;DHT22;6603;47.066;15.396;2023-08-30T00:33:39;15.70;1.00
13074;DHT22;6603;47.066;15.396;2023-08-30T00:36:05;15.70;1.00
13074;DHT22;6603;47.066;15.396;2023-08-30T00:38:33;15.60;1.00
13074;DHT22;6603;47.066;15.396;2023-08-30T00:41:00;15.60;13.30
13074;DHT22;6603;47.066;15.396;2023-08-30T00:43:26;15.50;10.50
13074;DHT22;6603;47.066;15.396;2023-08-30T00:45:52;15.50;27.70
13074;DHT22;6603;47.066;15.396;2023-08-30T00:48:19;15.50;86.20
13074;DHT22;6603;47.066;15.396;2023-08-30T00:50:46;15.50;86.70
13074;DHT22;6603;47.066;15.396;2023-08-30T00:53:12;15.30;99.90
13074;DHT22;6603;47.066;15.396;2023-08-30T00:55:39;15.40;67.20
13074;DHT22;6603;47.066;15.396;2023-08-30T00:58:05;15.30;99.90
13074;DHT22;6603;47.066;15.396;2023-08-30T01:00:32;15.30;99.90
13074;DHT22;6603;47.066;15.396;2023-08-30T01:02:58;15.30;99.90
13074;DHT22;6603;47.066;15.396;2023-08-30T01:05:25;15.20;99.90
13074;DHT22;6603;47.066;15.396;2023-08-30T01:07:52;15.30;98.50
13074;DHT22;6603;47.066;15.396;2023-08-30T01:10:27;15.30;99.90
13074;DHT22;6603;47.066;15.396;2023-08-30T01:13:03;15.30;99.90
13074;DHT22;6603;47.066;15.396;2023-08-30T01:15:33;15.10;99.90
13074;DHT22;6603;47.066;15.396;2023-08-30T01:18:01;15.20;99.90
13074;DHT22;6603;47.066;15.396;2023-08-30T01:20:34;15.20;99.90
13074;DHT22;6603;47.066;15.396;2023-08-30T01:23:09;15.20;99.90
13074;DHT22;6603;47.066;15.396;2023-08-30T01:28:31;15.20;99.90
13074;DHT22;6603;47.066;15.396;2023-08-30T01:30:59;15.30;99.90
13074;DHT22;6603;47.066;15.396;2023-08-30T01:33:26;15.10;99.90
13074;DHT22;6603;47.066;15.396;2023-08-30T01:35:59;15.10;99.90
13074;DHT22;6603;47.066;15.396;2023-08-30T01:38:27;15.10;99.90
13074;DHT22;6603;47.066;15.396;2023-08-30T01:40:55;15.10;99.90
13074;DHT22;6603;47.066;15.396;2023-08-30T01:43:22;15.10;99.90
13074;DHT22;6603;47.066;15.396;2023-08-30T01:45:50;15.20;99.90
13074;DHT22;6603;47.066;15.396;2023-08-30T01:48:17;15.20;99.90
13074;DHT22;6603;47.066;15.396;2023-08-30T01:50:44;15.30;99.90
13074;DHT22;6603;47.066;15.396;2023-08-30T01:53:12;15.40;99.90
13074;DHT22;6603;47.066;15.396;2023-08-30T01:55:38;15.40;99.90
13074;DHT22;6603;47.066;15.396;2023-08-30T01:58:06;15.30;52.60
13074;DHT22;6603;47.066;15.396;2023-08-30T02:00:33;15.30;71.20
13074;DHT22;6603;47.066;15.396;2023-08-30T02:02:58;15.30;88.80
13074;DHT22;6603;47.066;15.396;2023-08-30T02:05:24;15.30;93.30
13074;DHT22;6603;47.066;15.396;2023-08-30T02:08:14;15.30;99.90
13074;DHT22;6603;47.066;15.396;2023-08-30T02:10:51;15.40;99.90
13074;DHT22;6603;47.066;15.396;2023-08-30T02:13:21;15.30;99.90
13074;DHT22;6603;47.066;15.396;2023-08-30T02:15:53;15.40;99.90
13074;DHT22;6603;47.066;15.396;2023-08-30T02:18:21;15.30;99.90
13074;DHT22;6603;47.066;15.396;2023-08-30T02:20:47;15.30;99.90
13074;DHT22;6603;47.066;15.396;2023-08-30T02:23:13;15.20;99.90
13074;DHT22;6603;47.066;15.396;2023-08-30T02:25:38;15.10;99.90
13074;DHT22;6603;47.066;15.396;2023-08-30T02:28:04;14.80;99.90
13074;DHT22;6603;47.066;15.396;2023-08-30T02:30:31;15.00;99.90
13074;DHT22;6603;47.066;15.396;2023-08-30T02:32:57;15.00;99.90
13074;DHT22;6603;47.066;15.396;2023-08-30T02:35:23;14.90;99.90
13074;DHT22;6603;47.066;15.396;2023-08-30T02:37:49;14.90;99.90
13074;DHT22;6603;47.066;15.396;2023-08-30T02:40:15;15.10;99.90
13074;DHT22;6603;47.066;15.396;2023-08-30T02:42:41;15.20;99.90
13074;DHT22;6603;47.066;15.396;2023-08-30T02:45:07;15.00;99.90
13074;DHT22;6603;47.066;15.396;2023-08-30T02:47:33;15.20;99.90
13074;DHT22;6603;47.066;15.396;2023-08-30T02:49:59;15.10;99.90
13074;DHT22;6603;47.066;15.396;2023-08-30T02:52:25;15.00;99.90
13074;DHT22;6603;47.066;15.396;2023-08-30T02:54:51;15.00;99.90
13074;DHT22;6603;47.066;15.396;2023-08-30T02:57:17;14.80;99.90
13074;DHT22;6603;47.066;15.396;2023-08-30T02:59:43;14.80;99.90
13074;DHT22;6603;47.066;15.396;2023-08-30T03:02:09;14.80;99.90
13074;DHT22;6603;47.066;15.396;2023-08-30T03:04:35;14.80;99.90
13074;DHT22;6603;47.066;15.396;2023-08-30T03:07:01;14.60;99.90
13074;DHT22;6603;47.066;15.396;2023-08-30T03:09:27;14.70;99.90
13074;DHT22;6603;47.066;15.396;2023-08-30T03:11:53;14.70;99.90
13074;DHT22;6603;47.066;15.396;2023-08-30T03:14:19;14.60;99.90
13074;DHT22;6603;47.066;15.396;2023-08-30T03:16:45;14.50;99.90
13074;DHT22;6603;47.066;15.396;2023-08-30T03:19:13;14.40;99.90
13074;DHT22;6603;47.066;15.396;2023-08-30T03:21:39;14.40;99.90
13074;DHT22;6603;47.066;15.396;2023-08-30T03:24:05;14.50;99.90
13074;DHT22;6603;47.066;15.396;2023-08-30T03:26:30;14.50;99.90
13074;DHT22;6603;47.066;15.396;2023-08-30T03:28:56;14.50;99.90
13074;DHT22;6603;47.066;15.396;2023-08-30T03:31:22;14.60;99.90
13074;DHT22;6603;47.066;15.396;2023-08-30T03:33:49;14.60;99.90
13074;DHT22;6603;47.066;15.396;2023-08-30T03:36:16;14.60;99.90
13074;DHT22;6603;47.066;15.396;2023-08-30T03:38:43;14.70;99.90
13074;DHT22;6603;47.066;15.396;2023-08-30T03:41:10;14.70;99.90
13074;DHT22;6603;47.066;15.396;2023-08-30T03:43:37;14.70;99.90
13074;DHT22;6603;47.066;15.396;2023-08-30T03:46:03;14.70;99.90
13074;DHT22;6603;47.066;15.396;2023-08-30T03:48:30;14.70;99.90
13074;DHT22;6603;47.066;15.396;2023-08-30T03:50:57;14.70;99.90
13074;DHT22;6603;47.066;15.396;2023-08-30T03:53:23;14.60;99.90
13074;DHT22;6603;47.066;15.396;2023-08-30T03:55:50;14.40;99.90
13074;DHT22;6603;47.066;15.396;2023-08-30T03:58:18;14.30;99.90
13074;DHT22;6603;47.066;15.396;2023-08-30T04:03:12;14.30;99.90
13074;DHT22;6603;47.066;15.396;2023-08-30T04:05:38;14.30;99.90
13074;DHT22;6603;47.066;15.396;2023-08-30T04:08:05;14.10;99.90
13074;DHT22;6603;47.066;15.396;2023-08-30T04:10:39;14.00;99.90
13074;DHT22;6603;47.066;15.396;2023-08-30T04:13:06;14.00;99.90
13074;DHT22;6603;47.066;15.396;2023-08-30T04:15:37;13.90;99.90
13074;DHT22;6603;47.066;15.396;2023-08-30T04:18:04;14.10;99.90
13074;DHT22;6603;47.066;15.396;2023-08-30T04:20:31;14.10;99.90
13074;DHT22;6603;47.066;15.396;2023-08-30T04:22:59;14.00;99.90
13074;DHT22;6603;47.066;15.396;2023-08-30T04:25:28;14.20;99.90
13074;DHT22;6603;47.066;15.396;2023-08-30T04:27:54;14.20;99.90
13074;DHT22;6603;47.066;15.396;2023-08-30T04:30:20;14.20;99.90
13074;DHT22;6603;47.066;15.396;2023-08-30T04:32:46;14.10;99.90
13074;DHT22;6603;47.066;15.396;2023-08-30T04:35:12;14.30;99.90
13074;DHT22;6603;47.066;15.396;2023-08-30T04:37:38;14.20;99.90
13074;DHT22;6603;47.066;15.396;2023-08-30T04:40:08;14.20;99.90
13074;DHT22;6603;47.066;15.396;2023-08-30T04:42:35;14.40;99.90
13074;DHT22;6603;47.066;15.396;2023-08-30T04:45:02;14.20;99.90
13074;DHT22;6603;47.066;15.396;2023-08-30T04:47:29;14.20;99.90
13074;DHT22;6603;47.066;15.396;2023-08-30T04:49:56;14.20;99.90
13074;DHT22;6603;47.066;15.396;2023-08-30T04:52:22;14.30;99.90
13074;DHT22;6603;47.066;15.396;2023-08-30T04:54:47;14.40;99.90
13074;DHT22;6603;47.066;15.396;2023-08-30T04:57:15;14.60;99.90
13074;DHT22;6603;47.066;15.396;2023-08-30T04:59:45;14.50;99.90
13074;DHT22;6603;47.066;15.396;2023-08-30T05:02:12;14.50;99.90
13074;DHT22;6603;47.066;15.396;2023-08-30T05:04:38;14.50;99.90
13074;DHT22;6603;47.066;15.396;2023-08-30T05:07:04;14.70;99.90
13074;DHT22;6603;47.066;15.396;2023-08-30T05:09:30;14.70;99.90
13074;DHT22;6603;47.066;15.396;2023-08-30T05:11:57;14.70;99.90
13074;DHT22;6603;47.066;15.396;2023-08-30T05:14:23;14.80;99.90
13074;DHT22;6603;47.066;15.396;2023-08-30T05:16:49;14.80;99.90
13074;DHT22;6603;47.066;15.396;2023-08-30T05:19:15;14.80;99.90
13074;DHT22;6603;47.066;15.396;2023-08-30T05:21:44;14.80;99.90
13074;DHT22;6603;47.066;15.396;2023-08-30T05:24:10;14.80;99.90
13074;DHT22;6603;47.066;15.396;2023-08-30T05:26:36;14.90;99.90
13074;DHT22;6603;47.066;15.396;2023-08-30T05:29:03;15.00;99.90
13074;DHT22;6603;47.066;15.396;2023-08-30T05:31:29;15.00;99.90
13074;DHT22;6603;47.066;15.396;2023-08-30T05:33:55;15.10;99.90
13074;DHT22;6603;47.066;15.396;2023-08-30T05:36:21;15.30;99.90
13074;DHT22;6603;47.066;15.396;2023-08-30T05:38:46;15.40;99.90
13074;DHT22;6603;47.066;15.396;2023-08-30T05:41:12;15.40;99.90
13074;DHT22;6603;47.066;15.396;2023-08-30T05:43:38;15.50;99.90
13074;DHT22;6603;47.066;15.396;2023-08-30T05:46:04;15.50;99.90
13074;DHT22;6603;47.066;15.396;2023-08-30T05:48:30;15.50;99.90
13074;DHT22;6603;47.066;15.396;2023-08-30T05:50:57;15.40;99.90
13074;DHT22;6603;47.066;15.396;2023-08-30T05:53:23;15.40;99.90
13074;DHT22;6603;47.066;15.396;2023-08-30T05:55:48;15.30;99.90
13074;DHT22;6603;47.066;15.396;2023-08-30T05:58:14;15.50;99.90
13074;DHT22;6603;47.066;15.396;2023-08-30T06:00:41;15.50;99.90
13074;DHT22;6603;47.066;15.396;2023-08-30T06:03:07;15.60;99.90
13074;DHT22;6603;47.066;15.396;2023-08-30T06:05:34;15.70;99.90
13074;DHT22;6603;47.066;15.396;2023-08-30T06:08:00;15.70;99.90
13074;DHT22;6603;47.066;15.396;2023-08-30T06:10:27;15.80;99.90
13074;DHT22;6603;47.066;15.396;2023-08-30T06:12:53;15.90;99.90
13074;DHT22;6603;47.066;15.396;2023-08-30T06:15:19;16.00;99.90
13074;DHT22;6603;47.066;15.396;2023-08-30T06:17:44;16.00;99.90
13074;DHT22;6603;47.066;15.396;2023-08-30T06:20:12;16.10;99.90
13074;DHT22;6603;47.066;15.396;2023-08-30T06:22:38;16.20;99.90
13074;DHT22;6603;47.066;15.396;2023-08-30T06:25:05;16.30;99.90
13074;DHT22;6603;47.066;15.396;2023-08-30T06:27:32;16.40;99.90
13074;DHT22;6603;47.066;15.396;2023-08-30T06:29:58;16.40;99.90
13074;DHT22;6603;47.066;15.396;2023-08-30T06:32:26;16.50;99.90
13074;DHT22;6603;47.066;15.396;2023-08-30T06:34:53;16.60;99.90
13074;DHT22;6603;47.066;15.396;2023-08-30T06:37:18;16.80;99.90
13074;DHT22;6603;47.066;15.396;2023-08-30T06:39:44;16.80;99.90
13074;DHT22;6603;47.066;15.396;2023-08-30T06:42:10;16.90;99.90
13074;DHT22;6603;47.066;15.396;2023-08-30T06:44:37;16.90;99.90
13074;DHT22;6603;47.066;15.396;2023-08-30T06:47:02;17.00;99.90
13074;DHT22;6603;47.066;15.396;2023-08-30T06:49:28;16.90;99.90
13074;DHT22;6603;47.066;15.396;2023-08-30T06:51:57;17.00;99.90
13074;DHT22;6603;47.066;15.396;2023-08-30T06:54:23;17.10;99.90
13074;DHT22;6603;47.066;15.396;2023-08-30T06:57:01;17.00;99.90
13074;DHT22;6603;47.066;15.396;2023-08-30T06:59:27;17.00;99.90
13074;DHT22;6603;47.066;15.396;2023-08-30T07:01:53;17.10;99.90
13074;DHT22;6603;47.066;15.396;2023-08-30T07:04:19;17.10;99.90
13074;DHT22;6603;47.066;15.396;2023-08-30T07:06:44;17.10;99.90
13074;DHT22;6603;47.066;15.396;2023-08-30T07:09:10;17.00;99.90
13074;DHT22;6603;47.066;15.396;2023-08-30T07:11:38;17.10;99.90
13074;DHT22;6603;47.066;15.396;2023-08-30T07:14:04;17.30;99.90
13074;DHT22;6603;47.066;15.396;2023-08-30T07:16:31;17.30;99.90
13074;DHT22;6603;47.066;15.396;2023-08-30T07:18:58;17.40;99.90
13074;DHT22;6603;47.066;15.396;2023-08-30T07:21:24;17.40;99.90
13074;DHT22;6603;47.066;15.396;2023-08-30T07:23:50;17.40;99.90
13074;DHT22;6603;47.066;15.396;2023-08-30T07:26:16;17.50;99.90
13074;DHT22;6603;47.066;15.396;2023-08-30T07:28:42;17.50;99.90
13074;DHT22;6603;47.066;15.396;2023-08-30T07:31:08;17.40;94.00
13074;DHT22;6603;47.066;15.396;2023-08-30T07:33:35;17.50;99.90
13074;DHT22;6603;47.066;15.396;2023-08-30T07:36:01;17.60;99.90
13074;DHT22;6603;47.066;15.396;2023-08-30T07:38:28;17.70;65.30
13074;DHT22;6603;47.066;15.396;2023-08-30T07:40:54;17.80;50.70
13074;DHT22;6603;47.066;15.396;2023-08-30T07:43:20;17.80;99.90
13074;DHT22;6603;47.066;15.396;2023-08-30T07:45:47;17.80;99.90
13074;DHT22;6603;47.066;15.396;2023-08-30T07:48:13;17.80;99.90
13074;DHT22;6603;47.066;15.396;2023-08-30T07:50:39;17.80;99.90
13074;DHT22;6603;47.066;15.396;2023-08-30T07:53:04;17.90;99.90
13074;DHT22;6603;47.066;15.396;2023-08-30T07:55:30;18.00;99.90
13074;DHT22;6603;47.066;15.396;2023-08-30T07:57:56;18.10;99.90
13074;DHT22;6603;47.066;15.396;2023-08-30T08:00:22;18.10;99.90
13074;DHT22;6603;47.066;15.396;2023-08-30T08:02:48;18.20;99.90
13074;DHT22;6603;47.066;15.396;2023-08-30T08:05:14;18.00;99.90
13074;DHT22;6603;47.066;15.396;2023-08-30T08:07:42;17.80;71.30
13074;DHT22;6603;47.066;15.396;2023-08-30T08:10:08;17.90;79.60
13074;DHT22;6603;47.066;15.396;2023-08-30T08:12:35;18.30;1.00
13074;DHT22;6603;47.066;15.396;2023-08-30T08:15:01;18.30;47.80
13074;DHT22;6603;47.066;15.396;2023-08-30T08:17:29;18.60;95.50
13074;DHT22;6603;47.066;15.396;2023-08-30T08:19:55;18.80;98.70
13074;DHT22;6603;47.066;15.396;2023-08-30T08:22:20;18.80;96.20
13074;DHT22;6603;47.066;15.396;2023-08-30T08:24:48;18.50;72.60
13074;DHT22;6603;47.066;15.396;2023-08-30T08:27:17;18.60;88.10
13074;DHT22;6603;47.066;15.396;2023-08-30T08:29:43;18.20;1.00
13074;DHT22;6603;47.066;15.396;2023-08-30T08:32:09;18.50;99.90
13074;DHT22;6603;47.066;15.396;2023-08-30T08:34:35;18.70;13.90
13074;DHT22;6603;47.066;15.396;2023-08-30T08:37:00;18.80;1.00
13074;DHT22;6603;47.066;15.396;2023-08-30T08:39:26;18.90;1.00
13074;DHT22;6603;47.066;15.396;2023-08-30T08:41:54;19.00;1.00
13074;DHT22;6603;47.066;15.396;2023-08-30T08:44:21;19.00;1.00
13074;DHT22;6603;47.066;15.396;2023-08-30T08:46:49;19.30;1.00
13074;DHT22;6603;47.066;15.396;2023-08-30T08:49:17;19.50;1.00
13074;DHT22;6603;47.066;15.396;2023-08-30T08:51:44;19.80;1.00
13074;DHT22;6603;47.066;15.396;2023-08-30T08:54:11;20.10;1.00
13074;DHT22;6603;47.066;15.396;2023-08-30T08:56:38;20.20;99.90
13074;DHT22;6603;47.066;15.396;2023-08-30T08:59:05;20.30;1.00
13074;DHT22;6603;47.066;15.396;2023-08-30T09:01:34;20.20;99.90
13074;DHT22;6603;47.066;15.396;2023-08-30T09:04:05;19.70;1.00
13074;DHT22;6603;47.066;15.396;2023-08-30T09:06:33;19.90;1.00
13074;DHT22;6603;47.066;15.396;2023-08-30T09:09:00;19.70;1.00
13074;DHT22;6603;47.066;15.396;2023-08-30T09:11:26;19.70;1.00
13074;DHT22;6603;47.066;15.396;2023-08-30T09:13:52;19.70;1.00
13074;DHT22;6603;47.066;15.396;2023-08-30T09:16:18;19.80;1.00
13074;DHT22;6603;47.066;15.396;2023-08-30T09:18:44;19.50;1.00
13074;DHT22;6603;47.066;15.396;2023-08-30T09:21:10;19.70;1.00
13074;DHT22;6603;47.066;15.396;2023-08-30T09:23:37;20.10;1.00
13074;DHT22;6603;47.066;15.396;2023-08-30T09:26:04;20.30;1.00
13074;DHT22;6603;47.066;15.396;2023-08-30T09:28:31;20.10;1.00
13074;DHT22;6603;47.066;15.396;2023-08-30T09:30:59;20.00;1.00
13074;DHT22;6603;47.066;15.396;2023-08-30T09:33:33;20.20;1.00
13074;DHT22;6603;47.066;15.396;2023-08-30T09:36:00;20.20;1.00
13074;DHT22;6603;47.066;15.396;2023-08-30T09:38:26;20.40;1.00
13074;DHT22;6603;47.066;15.396;2023-08-30T09:41:02;20.40;1.00
13074;DHT22;6603;47.066;15.396;2023-08-30T09:43:28;20.50;1.00
13074;DHT22;6603;47.066;15.396;2023-08-30T09:45:54;20.80;1.00
13074;DHT22;6603;47.066;15.396;2023-08-30T09:48:27;20.70;1.00
13074;DHT22;6603;47.066;15.396;2023-08-30T09:50:58;20.50;1.00
13074;DHT22;6603;47.066;15.396;2023-08-30T09:53:29;20.30;1.00
13074;DHT22;6603;47.066;15.396;2023-08-30T09:55:58;20.30;1.00
13074;DHT22;6603;47.066;15.396;2023-08-30T09:58:27;20.40;99.90
13074;DHT22;6603;47.066;15.396;2023-08-30T10:03:25;20.40;1.00
13074;DHT22;6603;47.066;15.396;2023-08-30T10:05:52;20.20;1.00
13074;DHT22;6603;47.066;15.396;2023-08-30T10:08:20;20.10;1.00
13074;DHT22;6603;47.066;15.396;2023-08-30T10:10:46;20.20;1.00
13074;DHT22;6603;47.066;15.396;2023-08-30T10:13:13;20.30;1.00
13074;DHT22;6603;47.066;15.396;2023-08-30T10:15:44;20.50;1.00
13074;DHT22;6603;47.066;15.396;2023-08-30T10:18:15;20.00;1.00
13074;DHT22;6603;47.066;15.396;2023-08-30T10:20:45;19.90;1.00
13074;DHT22;6603;47.066;15.396;2023-08-30T10:23:12;20.20;1.00
13074;DHT22;6603;47.066;15.396;2023-08-30T10:25:40;20.20;1.00
13074;DHT22;6603;47.066;15.396;2023-08-30T10:28:07;20.20;99.90
13074;DHT22;6603;47.066;15.396;2023-08-30T10:30:34;20.40;1.00
13074;DHT22;6603;47.066;15.396;2023-08-30T10:33:00;20.40;1.00
13074;DHT22;6603;47.066;15.396;2023-08-30T10:35:26;20.50;99.90
13074;DHT22;6603;47.066;15.396;2023-08-30T10:37:56;20.50;1.00
13074;DHT22;6603;47.066;15.396;2023-08-30T10:40:23;20.60;1.00
13074;DHT22;6603;47.066;15.396;2023-08-30T10:43:02;20.70;99.90
13074;DHT22;6603;47.066;15.396;2023-08-30T10:45:29;20.40;99.90
13074;DHT22;6603;47.066;15.396;2023-08-30T10:47:57;20.20;1.00
13074;DHT22;6603;47.066;15.396;2023-08-30T10:50:33;20.60;1.00
13074;DHT22;6603;47.066;15.396;2023-08-30T10:53:00;20.70;1.00
13074;DHT22;6603;47.066;15.396;2023-08-30T10:55:26;20.70;99.90
13074;DHT22;6603;47.066;15.396;2023-08-30T10:58:03;20.80;1.00
13074;DHT22;6603;47.066;15.396;2023-08-30T11:00:30;20.70;1.00
13074;DHT22;6603;47.066;15.396;2023-08-30T11:02:57;20.80;1.00
13074;DHT22;6603;47.066;15.396;2023-08-30T11:05:25;21.10;1.00
13074;DHT22;6603;47.066;15.396;2023-08-30T11:07:52;21.20;1.00
13074;DHT22;6603;47.066;15.396;2023-08-30T11:10:19;21.20;99.90
13074;DHT22;6603;47.066;15.396;2023-08-30T11:12:46;21.70;1.00
13074;DHT22;6603;47.066;15.396;2023-08-30T11:15:13;21.90;99.90
13074;DHT22;6603;47.066;15.396;2023-08-30T11:17:43;21.80;99.90
13074;DHT22;6603;47.066;15.396;2023-08-30T11:20:14;21.80;1.00
13074;DHT22;6603;47.066;15.396;2023-08-30T11:22:44;22.00;1.00
13074;DHT22;6603;47.066;15.396;2023-08-30T11:25:11;22.20;99.90
13074;DHT22;6603;47.066;15.396;2023-08-30T11:27:38;22.50;99.90
13074;DHT22;6603;47.066;15.396;2023-08-30T11:30:09;22.40;99.90
13074;DHT22;6603;47.066;15.396;2023-08-30T11:32:36;22.40;99.90
13074;DHT22;6603;47.066;15.396;2023-08-30T11:35:03;22.10;1.00
13074;DHT22;6603;47.066;15.396;2023-08-30T11:37:30;21.80;99.90
13074;DHT22;6603;47.066;15.396;2023-08-30T11:39:56;21.90;99.90
13074;DHT22;6603;47.066;15.396;2023-08-30T11:42:23;22.20;1.00
13074;DHT22;6603;47.066;15.396;2023-08-30T11:44:50;22.50;1.00
13074;DHT22;6603;47.066;15.396;2023-08-30T11:47:22;22.00;1.00
13074;DHT22;6603;47.066;15.396;2023-08-30T11:49:49;21.80;99.90
13074;DHT22;6603;47.066;15.396;2023-08-30T11:52:16;22.10;99.90
13074;DHT22;6603;47.066;15.396;2023-08-30T11:54:44;22.20;1.00
13074;DHT22;6603;47.066;15.396;2023-08-30T11:57:10;22.50;1.00
13074;DHT22;6603;47.066;15.396;2023-08-30T11:59:36;22.40;1.00
13074;DHT22;6603;47.066;15.396;2023-08-30T12:02:03;22.40;1.00
13074;DHT22;6603;47.066;15.396;2023-08-30T12:04:30;22.20;99.90
13074;DHT22;6603;47.066;15.396;2023-08-30T12:06:56;21.90;99.90
13074;DHT22;6603;47.066;15.396;2023-08-30T12:09:22;22.40;1.00
13074;DHT22;6603;47.066;15.396;2023-08-30T12:11:49;22.50;1.00
13074;DHT22;6603;47.066;15.396;2023-08-30T12:14:15;23.10;99.90
13074;DHT22;6603;47.066;15.396;2023-08-30T12:16:41;23.30;99.90
13074;DHT22;6603;47.066;15.396;2023-08-30T12:19:10;22.80;99.90
13074;DHT22;6603;47.066;15.396;2023-08-30T12:21:46;23.30;9.50
13074;DHT22;6603;47.066;15.396;2023-08-30T12:24:13;23.10;1.00
13074;DHT22;6603;47.066;15.396;2023-08-30T12:26:39;23.40;99.90
13074;DHT22;6603;47.066;15.396;2023-08-30T12:29:05;23.70;99.90
13074;DHT22;6603;47.066;15.396;2023-08-30T12:31:32;23.70;99.90
13074;DHT22;6603;47.066;15.396;2023-08-30T12:33:58;23.70;1.00
13074;DHT22;6603;47.066;15.396;2023-08-30T12:36:24;23.90;1.00
13074;DHT22;6603;47.066;15.396;2023-08-30T12:38:50;23.70;99.90
13074;DHT22;6603;47.066;15.396;2023-08-30T12:41:17;23.50;99.90
13074;DHT22;6603;47.066;15.396;2023-08-30T12:43:43;23.40;1.00
13074;DHT22;6603;47.066;15.396;2023-08-30T12:46:09;23.30;1.00
13074;DHT22;6603;47.066;15.396;2023-08-30T12:48:35;22.60;1.00
13074;DHT22;6603;47.066;15.396;2023-08-30T12:51:01;22.30;99.90
13074;DHT22;6603;47.066;15.396;2023-08-30T12:53:27;22.10;1.00
13074;DHT22;6603;47.066;15.396;2023-08-30T12:55:53;21.80;1.00
13074;DHT22;6603;47.066;15.396;2023-08-30T12:58:19;21.70;1.00
13074;DHT22;6603;47.066;15.396;2023-08-30T13:00:45;21.30;1.00
13074;DHT22;6603;47.066;15.396;2023-08-30T13:03:11;21.00;1.00
13074;DHT22;6603;47.066;15.396;2023-08-30T13:05:37;20.80;1.00
13074;DHT22;6603;47.066;15.396;2023-08-30T13:08:03;20.70;1.00
13074;DHT22;6603;47.066;15.396;2023-08-30T13:10:29;20.60;1.00
13074;DHT22;6603;47.066;15.396;2023-08-30T13:12:55;20.40;1.00
13074;DHT22;6603;47.066;15.396;2023-08-30T13:15:22;20.10;1.00
13074;DHT22;6603;47.066;15.396;2023-08-30T13:17:48;19.90;1.00
13074;DHT22;6603;47.066;15.396;2023-08-30T13:20:14;19.70;1.00
13074;DHT22;6603;47.066;15.396;2023-08-30T13:22:40;19.50;11.90
13074;DHT22;6603;47.066;15.396;2023-08-30T13:25:07;19.40;1.00
13074;DHT22;6603;47.066;15.396;2023-08-30T13:27:33;19.40;41.70
13074;DHT22;6603;47.066;15.396;2023-08-30T13:29:59;19.40;74.20
13074;DHT22;6603;47.066;15.396;2023-08-30T13:32:25;19.30;99.90
13074;DHT22;6603;47.066;15.396;2023-08-30T13:34:52;19.30;24.40
13074;DHT22;6603;47.066;15.396;2023-08-30T13:37:18;19.30;86.30
13074;DHT22;6603;47.066;15.396;2023-08-30T13:39:44;19.20;29.80
13074;DHT22;6603;47.066;15.396;2023-08-30T13:42:11;19.10;23.10
13074;DHT22;6603;47.066;15.396;2023-08-30T13:44:37;18.90;73.80
13074;DHT22;6603;47.066;15.396;2023-08-30T13:47:04;18.70;99.90
13074;DHT22;6603;47.066;15.396;2023-08-30T13:49:30;18.40;99.90
13074;DHT22;6603;47.066;15.396;2023-08-30T13:51:57;18.20;99.90
13074;DHT22;6603;47.066;15.396;2023-08-30T13:54:24;18.00;99.90
13074;DHT22;6603;47.066;15.396;2023-08-30T13:56:49;17.90;99.90
13074;DHT22;6603;47.066;15.396;2023-08-30T13:59:16;17.70;99.90
13074;DHT22;6603;47.066;15.396;2023-08-30T14:01:42;17.60;99.90
13074;DHT22;6603;47.066;15.396;2023-08-30T14:04:08;17.50;99.90
13074;DHT22;6603;47.066;15.396;2023-08-30T16:36:00;16.60;99.90
13074;DHT22;6603;47.066;15.396;2023-08-30T16:38:28;16.60;99.90
13074;DHT22;6603;47.066;15.396;2023-08-30T16:40:54;16.60;99.90
13074;DHT22;6603;47.066;15.396;2023-08-30T16:43:19;16.80;99.90
13074;DHT22;6603;47.066;15.396;2023-08-30T16:45:45;16.70;99.90
13074;DHT22;6603;47.066;15.396;2023-08-30T16:48:12;16.70;99.90
13074;DHT22;6603;47.066;15.396;2023-08-30T16:50:40;16.70;99.90
13074;DHT22;6603;47.066;15.396;2023-08-30T16:53:06;16.50;99.90
13074;DHT22;6603;47.066;15.396;2023-08-30T16:55:33;16.40;99.90
13074;DHT22;6603;47.066;15.396;2023-08-30T16:57:59;16.40;99.90
13074;DHT22;6603;47.066;15.396;2023-08-30T17:00:24;16.30;99.90
13074;DHT22;6603;47.066;15.396;2023-08-30T17:02:50;16.40;99.90
13074;DHT22;6603;47.066;15.396;2023-08-30T17:05:20;16.50;99.90
13074;DHT22;6603;47.066;15.396;2023-08-30T17:07:45;16.30;99.90
13074;DHT22;6603;47.066;15.396;2023-08-30T17:10:11;16.20;99.90
13074;DHT22;6603;47.066;15.396;2023-08-30T17:12:37;16.20;99.90
13074;DHT22;6603;47.066;15.396;2023-08-30T17:15:04;16.10;99.90
13074;DHT22;6603;47.066;15.396;2023-08-30T17:17:32;16.00;99.90
13074;DHT22;6603;47.066;15.396;2023-08-30T17:19:58;16.00;99.90
13074;DHT22;6603;47.066;15.396;2023-08-30T17:22:24;16.00;99.90
13074;DHT22;6603;47.066;15.396;2023-08-30T17:24:49;15.90;99.90
13074;DHT22;6603;47.066;15.396;2023-08-30T17:27:15;15.90;99.90
13074;DHT22;6603;47.066;15.396;2023-08-30T17:29:41;16.00;99.90
13074;DHT22;6603;47.066;15.396;2023-08-30T17:32:07;16.10;99.90
13074;DHT22;6603;47.066;15.396;2023-08-30T17:34:33;16.00;99.90
13074;DHT22;6603;47.066;15.396;2023-08-30T17:36:58;16.00;99.90
13074;DHT22;6603;47.066;15.396;2023-08-30T17:39:25;16.00;99.90
13074;DHT22;6603;47.066;15.396;2023-08-30T17:41:54;16.00;99.90
13074;DHT22;6603;47.066;15.396;2023-08-30T17:44:21;16.00;99.90
13074;DHT22;6603;47.066;15.396;2023-08-30T17:46:47;16.00;99.90
13074;DHT22;6603;47.066;15.396;2023-08-30T17:49:13;16.00;99.90
13074;DHT22;6603;47.066;15.396;2023-08-30T17:51:39;16.10;99.90
13074;DHT22;6603;47.066;15.396;2023-08-30T17:54:04;16.10;99.90
13074;DHT22;6603;47.066;15.396;2023-08-30T17:56:31;16.20;99.90
13074;DHT22;6603;47.066;15.396;2023-08-30T17:58:57;16.20;99.90
13074;DHT22;6603;47.066;15.396;2023-08-30T18:01:24;16.10;99.90
13074;DHT22;6603;47.066;15.396;2023-08-30T18:03:53;16.00;99.90
13074;DHT22;6603;47.066;15.396;2023-08-30T18:06:20;15.90;99.90
13074;DHT22;6603;47.066;15.396;2023-08-30T18:08:46;16.10;99.90
13074;DHT22;6603;47.066;15.396;2023-08-30T18:11:20;16.10;99.90